createdAt,value
2018-07-20T00:00:11.275Z,11.63
2018-07-20T00:02:38.624Z,10.47
2018-07-20T00:05:06.300Z,10.60
2018-07-20T00:07:34.111Z,10.47
2018-07-20T00:10:01.375Z,9.87
2018-07-20T00:12:28.624Z,9.40
2018-07-20T00:14:55.960Z,9.80
2018-07-20T00:17:23.198Z,10.13
2018-07-20T00:19:50.453Z,10.60
2018-07-20T00:22:17.769Z,10.57
2018-07-20T00:24:44.958Z,10.70
2018-07-20T00:27:12.195Z,11.47
2018-07-20T00:29:39.505Z,12.33
2018-07-20T00:32:07.303Z,11.07
2018-07-20T00:34:34.529Z,13.80
2018-07-20T00:37:01.775Z,10.97
2018-07-20T00:39:28.999Z,10.57
2018-07-20T00:41:56.788Z,12.60
2018-07-20T00:44:24.058Z,14.43
2018-07-20T00:46:51.351Z,12.17
2018-07-20T00:49:18.602Z,10.23
2018-07-20T00:51:45.958Z,11.20
2018-07-20T00:54:13.219Z,11.57
2018-07-20T00:56:40.453Z,12.40
2018-07-20T00:59:07.839Z,14.43
2018-07-20T01:01:35.093Z,11.87
2018-07-20T01:04:03.077Z,12.87
2018-07-20T01:06:30.388Z,12.83
2018-07-20T01:08:57.646Z,14.03
2018-07-20T01:11:24.971Z,12.77
2018-07-20T01:13:52.441Z,14.47
2018-07-20T01:16:19.737Z,12.27
2018-07-20T01:18:46.992Z,14.40
2018-07-20T01:21:14.909Z,13.80
2018-07-20T01:23:42.130Z,14.07
2018-07-20T01:26:09.407Z,12.23
2018-07-20T01:28:36.721Z,14.87
2018-07-20T01:31:04.049Z,14.70
2018-07-20T01:33:31.329Z,14.43
2018-07-20T01:35:58.582Z,13.07
2018-07-20T01:38:25.949Z,16.93
2018-07-20T01:40:53.274Z,20.10
2018-07-20T01:43:20.516Z,13.53
2018-07-20T01:45:47.777Z,15.20
2018-07-20T01:48:15.820Z,15.07
2018-07-20T01:50:43.204Z,14.20
2018-07-20T01:53:10.582Z,15.50
2018-07-20T01:55:37.855Z,15.70
2018-07-20T01:58:05.160Z,18.57
2018-07-20T02:00:32.373Z,16.70
2018-07-20T02:02:59.634Z,16.87
2018-07-20T02:05:26.853Z,19.20
2018-07-20T02:07:54.143Z,17.03
2018-07-20T02:10:22.202Z,16.27
2018-07-20T02:12:49.442Z,16.60
2018-07-20T02:15:16.772Z,18.00
2018-07-20T02:17:44.015Z,17.90
2018-07-20T02:20:11.262Z,13.67
2018-07-20T02:22:38.522Z,16.23
2018-07-20T02:25:05.781Z,16.53
2018-07-20T02:27:33.148Z,16.40
2018-07-20T02:30:00.473Z,18.10
2018-07-20T02:32:27.949Z,15.83
2018-07-20T02:34:55.190Z,15.23
2018-07-20T02:37:22.417Z,17.80
2018-07-20T02:39:49.709Z,15.07
2018-07-20T02:42:16.947Z,13.67
2018-07-20T02:44:44.297Z,13.73
2018-07-20T02:47:11.605Z,13.53
2018-07-20T02:49:38.845Z,10.70
2018-07-20T02:52:06.261Z,15.17
2018-07-20T02:54:33.665Z,14.17
2018-07-20T02:57:01.048Z,14.60
2018-07-20T02:59:28.395Z,13.50
2018-07-20T03:01:55.639Z,13.10
2018-07-20T03:04:22.908Z,14.40
2018-07-20T03:06:50.212Z,15.40
2018-07-20T03:09:17.867Z,15.97
2018-07-20T03:11:45.790Z,13.90
2018-07-20T03:14:13.090Z,13.93
2018-07-20T03:16:40.371Z,14.93
2018-07-20T03:19:08.030Z,13.77
2018-07-20T03:21:35.313Z,14.93
2018-07-20T03:24:02.590Z,15.00
2018-07-20T03:26:29.849Z,13.73
2018-07-20T03:28:57.069Z,14.70
2018-07-20T03:31:24.296Z,14.27
2018-07-20T03:33:51.552Z,13.83
2018-07-20T03:36:18.760Z,14.50
2018-07-20T03:38:46.589Z,14.83
2018-07-20T03:41:13.849Z,14.93
2018-07-20T03:43:41.113Z,17.77
2018-07-20T03:46:08.446Z,15.80
2018-07-20T03:48:35.765Z,13.87
2018-07-20T03:51:03.022Z,15.23
2018-07-20T03:53:30.293Z,16.23
2018-07-20T03:55:57.582Z,15.70
2018-07-20T03:58:24.872Z,15.93
2018-07-20T04:00:52.086Z,16.63
2018-07-20T04:03:19.969Z,16.00
2018-07-20T04:05:47.232Z,15.37
2018-07-20T04:08:14.445Z,16.60
2018-07-20T04:10:42.441Z,16.13
2018-07-20T04:13:09.723Z,15.93
2018-07-20T04:15:36.993Z,19.03
2018-07-20T04:18:04.255Z,14.90
2018-07-20T04:20:31.553Z,18.63
2018-07-20T04:22:58.817Z,15.63
2018-07-20T04:25:26.464Z,15.80
2018-07-20T04:27:53.784Z,15.40
2018-07-20T04:30:21.146Z,15.10
2018-07-20T04:32:48.554Z,14.90
2018-07-20T04:35:15.820Z,15.27
2018-07-20T04:37:43.089Z,16.80
2018-07-20T04:40:10.334Z,17.67
2018-07-20T04:42:37.786Z,15.27
2018-07-20T04:45:05.246Z,15.13
2018-07-20T04:47:32.508Z,14.63
2018-07-20T04:49:59.829Z,14.30
2018-07-20T04:52:27.095Z,12.87
2018-07-20T04:54:54.343Z,16.97
2018-07-20T04:57:21.701Z,13.80
2018-07-20T04:59:48.975Z,14.53
2018-07-20T05:02:16.266Z,14.73
2018-07-20T05:04:43.528Z,13.53
2018-07-20T05:07:10.814Z,15.37
2018-07-20T05:09:38.028Z,14.70
2018-07-20T05:12:05.776Z,13.23
2018-07-20T05:14:33.062Z,14.63
2018-07-20T05:17:00.421Z,14.73
2018-07-20T05:19:27.693Z,15.97
2018-07-20T05:21:55.435Z,14.33
2018-07-20T05:24:22.681Z,13.30
2018-07-20T05:26:49.934Z,18.40
2018-07-20T05:29:17.172Z,12.73
2018-07-20T05:31:44.446Z,14.57
2018-07-20T05:34:11.853Z,12.50
2018-07-20T05:36:39.134Z,11.83
2018-07-20T05:39:07.436Z,15.70
2018-07-20T05:41:34.931Z,12.53
2018-07-20T05:44:02.393Z,13.60
2018-07-20T05:46:29.618Z,10.73
2018-07-20T05:48:56.961Z,12.00
2018-07-20T05:51:24.226Z,10.13
2018-07-20T05:53:51.510Z,12.40
2018-07-20T05:56:18.910Z,17.13
2018-07-20T05:58:46.293Z,14.00
2018-07-20T06:01:13.625Z,11.43
2018-07-20T06:03:40.933Z,11.57
2018-07-20T06:06:08.336Z,11.40
2018-07-20T06:08:35.818Z,10.90
2018-07-20T06:11:03.133Z,12.10
2018-07-20T06:13:30.631Z,12.60
2018-07-20T06:15:58.025Z,12.43
2018-07-20T06:18:25.485Z,10.93
2018-07-20T06:20:52.827Z,12.47
2018-07-20T06:23:20.319Z,10.37
2018-07-20T06:25:47.853Z,10.43
2018-07-20T06:28:15.199Z,10.67
2018-07-20T06:30:42.665Z,10.17
2018-07-20T06:33:10.089Z,9.80
2018-07-20T06:35:37.529Z,12.50
2018-07-20T06:38:04.822Z,9.70
2018-07-20T06:40:32.108Z,10.90
2018-07-20T06:42:59.430Z,10.90
2018-07-20T06:45:26.847Z,10.33
2018-07-20T06:47:54.257Z,9.50
2018-07-20T06:50:22.398Z,10.40
2018-07-20T06:52:49.653Z,10.60
2018-07-20T06:55:16.915Z,10.17
2018-07-20T06:57:44.818Z,10.00
2018-07-20T07:00:13.053Z,9.87
2018-07-20T07:02:40.393Z,10.50
2018-07-20T07:05:08.962Z,10.97
2018-07-20T07:07:36.427Z,10.13
2018-07-20T07:10:03.818Z,9.47
2018-07-20T07:12:31.202Z,7.77
2018-07-20T07:14:58.542Z,10.20
2018-07-20T07:17:25.867Z,9.73
2018-07-20T07:19:53.210Z,9.77
2018-07-20T07:22:21.437Z,11.63
2018-07-20T07:24:48.834Z,9.47
2018-07-20T07:27:16.139Z,8.70
2018-07-20T07:29:43.575Z,8.77
2018-07-20T07:32:11.678Z,9.33
2018-07-20T07:34:39.107Z,8.23
2018-07-20T07:37:06.429Z,8.90
2018-07-20T07:39:33.763Z,8.43
2018-07-20T07:42:01.143Z,7.87
2018-07-20T07:44:28.510Z,8.30
2018-07-20T07:46:55.832Z,10.03
2018-07-20T07:49:23.167Z,8.33
2018-07-20T07:51:50.409Z,11.80
2018-07-20T07:54:17.790Z,7.67
2018-07-20T07:56:45.120Z,8.03
2018-07-20T07:59:12.457Z,9.03
2018-07-20T08:02:03.793Z,7.07
2018-07-20T08:04:31.115Z,7.23
2018-07-20T08:06:58.512Z,8.17
2018-07-20T08:09:25.975Z,7.53
2018-07-20T08:11:53.289Z,5.65
2018-07-20T08:14:20.580Z,6.67
2018-07-20T08:16:47.919Z,5.10
2018-07-20T08:19:15.296Z,5.87
2018-07-20T08:21:42.586Z,8.33
2018-07-20T08:24:09.994Z,8.60
2018-07-20T08:26:37.311Z,5.92
2018-07-20T08:29:04.800Z,4.70
2018-07-20T08:31:33.035Z,6.10
2018-07-20T08:34:00.304Z,5.08
2018-07-20T08:36:27.759Z,4.47
2018-07-20T08:38:55.063Z,5.03
2018-07-20T08:41:22.350Z,5.77
2018-07-20T08:43:49.803Z,5.20
2018-07-20T08:46:17.461Z,5.53
2018-07-20T08:48:44.889Z,6.33
2018-07-20T08:51:12.442Z,4.30
2018-07-20T08:53:39.771Z,5.60
2018-07-20T08:56:07.028Z,5.63
2018-07-20T08:58:34.420Z,4.43
2018-07-20T09:01:01.871Z,4.13
2018-07-20T09:03:29.878Z,3.43
2018-07-20T09:05:57.354Z,4.00
2018-07-20T09:08:24.791Z,4.80
2018-07-20T09:10:52.272Z,7.60
2018-07-20T09:13:19.773Z,4.33
2018-07-20T09:15:47.093Z,4.23
2018-07-20T09:18:15.086Z,5.30
2018-07-20T09:20:42.528Z,5.27
2018-07-20T09:23:10.121Z,8.10
2018-07-20T09:25:37.456Z,3.67
2018-07-20T09:28:04.868Z,4.00
2018-07-20T09:30:32.451Z,4.63
2018-07-20T09:33:00.389Z,3.73
2018-07-20T09:35:28.438Z,4.87
2018-07-20T09:37:57.095Z,5.40
2018-07-20T09:40:24.659Z,5.43
2018-07-20T09:42:52.975Z,3.37
2018-07-20T09:45:20.771Z,6.50
2018-07-20T09:47:48.642Z,6.70
2018-07-20T09:50:15.991Z,3.40
2018-07-20T09:52:43.578Z,4.30
2018-07-20T09:55:11.195Z,4.97
2018-07-20T09:57:38.720Z,8.37
2018-07-20T10:00:06.447Z,3.77
2018-07-20T10:02:34.068Z,5.40
2018-07-20T10:05:01.858Z,3.47
2018-07-20T10:07:29.269Z,5.27
2018-07-20T10:09:56.724Z,5.70
2018-07-20T10:12:24.110Z,4.97
2018-07-20T10:14:51.641Z,3.30
2018-07-20T10:17:19.063Z,3.17
2018-07-20T10:19:46.824Z,3.63
2018-07-20T10:22:14.401Z,3.57
2018-07-20T10:24:41.909Z,4.00
2018-07-20T10:29:36.682Z,5.00
2018-07-20T10:32:04.101Z,5.33
2018-07-20T10:34:31.641Z,3.53
2018-07-20T10:36:59.275Z,4.90
2018-07-20T10:39:27.830Z,5.37
2018-07-20T10:41:55.535Z,4.03
2018-07-20T10:44:23.513Z,3.30
2018-07-20T10:46:50.965Z,2.83
2018-07-20T10:49:18.329Z,3.23
2018-07-20T10:51:46.038Z,4.53
2018-07-20T10:54:13.528Z,4.10
2018-07-20T10:56:41.096Z,4.77
2018-07-20T10:59:09.565Z,4.23
2018-07-20T11:01:37.066Z,3.40
2018-07-20T11:04:04.752Z,3.90
2018-07-20T11:06:32.825Z,4.10
2018-07-20T11:09:00.455Z,3.47
2018-07-20T11:11:28.713Z,4.47
2018-07-20T11:13:56.729Z,5.00
2018-07-20T11:16:24.260Z,3.97
2018-07-20T11:18:52.150Z,3.73
2018-07-20T11:21:19.769Z,6.33
2018-07-20T11:23:47.295Z,5.30
2018-07-20T11:26:14.920Z,3.90
2018-07-20T11:28:42.619Z,6.20
2018-07-20T11:31:10.223Z,4.87
2018-07-20T11:33:37.672Z,3.77
2018-07-20T11:36:05.300Z,6.13
2018-07-20T11:38:33.020Z,4.37
2018-07-20T11:41:00.761Z,2.93
